createdAt,value
2022-09-16T00:02:05.812Z,2.08
2022-09-16T00:05:09.596Z,2.00
2022-09-16T00:08:14.642Z,2.35
2022-09-16T00:11:19.465Z,2.15
2022-09-16T00:14:26.187Z,2.25
2022-09-16T00:17:31.399Z,2.70
2022-09-16T00:20:36.593Z,2.55
2022-09-16T00:23:42.428Z,1.70
2022-09-16T00:26:49.793Z,1.70
2022-09-16T00:29:54.240Z,1.60
2022-09-16T00:32:57.462Z,1.40
2022-09-16T00:36:12.161Z,1.20
2022-09-16T00:39:15.497Z,1.50
2022-09-16T00:42:20.028Z,1.62
2022-09-16T00:45:27.455Z,1.67
2022-09-16T00:48:34.298Z,2.37
2022-09-16T00:51:39.446Z,2.30
2022-09-16T00:54:43.921Z,2.08
2022-09-16T00:57:47.840Z,2.30
2022-09-16T01:00:51.533Z,1.90
2022-09-16T01:03:59.565Z,2.10
2022-09-16T01:07:03.255Z,1.50
2022-09-16T01:10:08.112Z,1.60
2022-09-16T01:13:14.673Z,1.30
2022-09-16T01:16:29.918Z,1.80
2022-09-16T01:19:43.463Z,1.42
2022-09-16T01:23:01.254Z,2.00
2022-09-16T01:26:24.940Z,1.60
2022-09-16T01:30:05.287Z,1.48
2022-09-16T01:33:36.944Z,1.80
2022-09-16T01:36:45.825Z,2.10
2022-09-16T01:40:02.299Z,1.50
2022-09-16T01:43:22.054Z,1.48
2022-09-16T01:46:37.817Z,1.48
2022-09-16T01:50:04.112Z,1.80
2022-09-16T01:53:21.433Z,1.83
2022-09-16T01:56:40.394Z,1.52
2022-09-16T02:00:12.080Z,1.70
2022-09-16T02:03:21.448Z,1.55
2022-09-16T02:06:29.959Z,1.60
2022-09-16T02:09:37.592Z,1.40
2022-09-16T02:12:44.360Z,1.50
2022-09-16T02:15:52.723Z,1.80
2022-09-16T02:19:03.030Z,1.70
2022-09-16T02:22:16.643Z,1.42
2022-09-16T02:25:22.264Z,1.92
2022-09-16T02:28:31.676Z,1.90
2022-09-16T02:31:40.182Z,1.90
2022-09-16T02:34:51.881Z,1.62
2022-09-16T02:38:03.314Z,1.58
2022-09-16T02:41:07.094Z,1.73
2022-09-16T02:44:11.405Z,1.85
2022-09-16T02:47:25.977Z,1.92
2022-09-16T02:50:41.516Z,1.90
2022-09-16T02:53:55.695Z,1.98
2022-09-16T02:56:59.221Z,2.53
2022-09-16T03:00:03.495Z,2.05
2022-09-16T03:03:09.392Z,2.35
2022-09-16T03:06:36.233Z,2.92
2022-09-16T03:10:00.657Z,2.60
2022-09-16T03:13:33.741Z,2.70
2022-09-16T03:17:35.142Z,2.92
2022-09-16T03:20:43.811Z,2.93
2022-09-16T03:24:10.882Z,2.78
2022-09-16T03:27:45.623Z,2.58
2022-09-16T03:30:56.322Z,2.45
2022-09-16T03:34:19.212Z,2.20
2022-09-16T03:37:28.927Z,2.40
2022-09-16T03:40:53.472Z,2.55
2022-09-16T03:44:04.505Z,2.08
2022-09-16T03:47:27.644Z,2.53
2022-09-16T03:50:36.162Z,2.30
2022-09-16T03:53:39.968Z,2.37
2022-09-16T03:57:21.049Z,2.87
2022-09-16T04:00:44.035Z,2.72
2022-09-16T04:04:23.705Z,2.40
2022-09-16T04:07:59.381Z,2.95
2022-09-16T04:11:32.282Z,2.90
2022-09-16T04:14:36.856Z,2.55
2022-09-16T04:18:04.293Z,2.78
2022-09-16T04:21:28.308Z,3.10
2022-09-16T04:24:52.925Z,3.12
2022-09-16T04:28:18.261Z,3.35
2022-09-16T04:31:42.550Z,3.10
2022-09-16T04:35:09.151Z,3.20
2022-09-16T04:38:33.655Z,3.12
2022-09-16T04:42:18.367Z,3.50
2022-09-16T04:45:51.684Z,3.60
2022-09-16T04:49:09.068Z,4.07
2022-09-16T04:53:14.508Z,3.12
2022-09-16T04:56:44.241Z,3.53
2022-09-16T04:59:49.133Z,3.97
2022-09-16T05:03:32.858Z,3.37
2022-09-16T05:06:58.694Z,3.17
2022-09-16T05:10:41.258Z,3.50
2022-09-16T05:14:18.999Z,3.78
2022-09-16T05:17:51.313Z,3.50
2022-09-16T05:21:43.858Z,4.03
2022-09-16T05:24:52.141Z,3.72
2022-09-16T05:28:23.064Z,3.55
2022-09-16T05:31:49.602Z,4.13
2022-09-16T05:35:15.413Z,4.43
2022-09-16T05:39:11.172Z,4.37
2022-09-16T05:42:50.061Z,3.65
2022-09-16T05:46:21.947Z,3.95
2022-09-16T05:49:48.196Z,3.80
2022-09-16T05:53:33.012Z,4.00
2022-09-16T05:56:56.590Z,3.83
2022-09-16T06:00:19.538Z,4.32
2022-09-16T06:03:27.443Z,4.62
2022-09-16T06:06:53.984Z,5.07
2022-09-16T06:10:43.717Z,4.55
2022-09-16T06:14:07.540Z,4.55
2022-09-16T06:17:31.327Z,3.22
2022-09-16T06:20:54.235Z,3.78
2022-09-16T06:24:53.400Z,3.50
2022-09-16T06:28:18.225Z,3.28
2022-09-16T06:31:26.698Z,3.62
2022-09-16T06:34:50.616Z,3.67
2022-09-16T06:38:00.130Z,3.28
2022-09-16T06:41:24.852Z,3.12
2022-09-16T06:44:53.883Z,6.35
2022-09-16T06:48:18.741Z,4.10
2022-09-16T06:52:03.953Z,3.08
2022-09-16T06:55:10.840Z,3.17
2022-09-16T06:58:55.976Z,3.62
2022-09-16T07:02:02.139Z,3.22
2022-09-16T07:05:15.185Z,3.97
2022-09-16T07:08:20.033Z,3.75
2022-09-16T07:11:44.839Z,3.20
2022-09-16T07:15:10.569Z,3.40
2022-09-16T07:18:26.016Z,3.30
2022-09-16T07:21:49.740Z,3.12
2022-09-16T07:24:57.915Z,2.97
2022-09-16T07:28:21.901Z,3.22
2022-09-16T07:31:50.600Z,2.87
2022-09-16T07:35:13.474Z,2.90
2022-09-16T07:38:44.869Z,3.10
2022-09-16T07:42:10.607Z,3.05
2022-09-16T07:45:41.339Z,3.17
2022-09-16T07:48:49.613Z,2.90
2022-09-16T07:52:16.889Z,2.50
2022-09-16T07:55:40.044Z,2.70
2022-09-16T07:59:13.041Z,2.60
2022-09-16T08:02:43.372Z,2.87
2022-09-16T08:06:09.747Z,2.40
2022-09-16T08:13:08.816Z,2.22
2022-09-16T08:16:51.787Z,2.50
2022-09-16T08:20:38.771Z,2.78
2022-09-16T08:24:04.572Z,2.22
2022-09-16T08:27:36.232Z,2.60
2022-09-16T08:31:00.359Z,2.10
2022-09-16T08:34:26.583Z,1.77
2022-09-16T08:37:55.013Z,2.28
2022-09-16T08:41:56.325Z,2.30
2022-09-16T08:45:29.768Z,1.85
2022-09-16T08:49:05.984Z,1.90
2022-09-16T08:52:15.577Z,2.20
2022-09-16T08:55:46.824Z,2.30
2022-09-16T08:59:25.070Z,1.70
2022-09-16T09:03:21.862Z,1.90
2022-09-16T09:06:53.329Z,2.20
2022-09-16T09:10:48.776Z,1.83
2022-09-16T09:14:34.641Z,2.33
2022-09-16T09:18:32.915Z,1.90
2022-09-16T09:22:52.321Z,2.15
2022-09-16T09:26:36.870Z,1.58
2022-09-16T09:30:29.065Z,1.77
2022-09-16T09:34:17.646Z,1.70
2022-09-16T09:38:24.310Z,1.73
2022-09-16T09:42:49.731Z,1.70
2022-09-16T09:46:34.186Z,2.00
2022-09-16T09:50:47.962Z,2.00
2022-09-16T10:09:16.205Z,1.83
2022-09-16T10:12:40.896Z,1.58
2022-09-16T10:16:14.640Z,1.62
2022-09-16T10:19:57.177Z,1.73
2022-09-16T10:23:41.397Z,2.10
2022-09-16T10:27:36.798Z,1.90
2022-09-16T10:31:02.354Z,1.77
2022-09-16T10:34:35.664Z,1.83
2022-09-16T10:38:23.157Z,1.80
2022-09-16T10:45:54.055Z,2.00
2022-09-16T10:49:49.991Z,1.70
2022-09-16T10:53:44.055Z,1.55
2022-09-16T10:57:36.752Z,1.52
2022-09-16T11:01:31.127Z,1.98
2022-09-16T11:13:20.753Z,1.75
2022-09-16T11:17:26.269Z,1.87
2022-09-16T11:21:16.116Z,1.65
2022-09-16T11:25:09.124Z,2.12
2022-09-16T11:29:44.393Z,2.20
2022-09-16T11:33:23.348Z,2.10
2022-09-16T11:37:05.047Z,2.12
2022-09-16T11:40:55.997Z,1.83
2022-09-16T11:44:45.118Z,1.95
2022-09-16T11:49:05.210Z,1.70
2022-09-16T11:53:07.241Z,1.70
2022-09-16T11:57:02.208Z,1.87
2022-09-16T12:00:25.768Z,1.83
2022-09-16T12:04:30.011Z,1.95
2022-09-16T12:08:23.403Z,1.87
2022-09-16T12:12:06.724Z,2.03
2022-09-16T12:16:13.130Z,1.90
2022-09-16T12:20:02.067Z,2.10
2022-09-16T12:23:31.675Z,2.03
2022-09-16T12:28:05.430Z,2.10
2022-09-16T12:31:54.979Z,1.87
2022-09-16T12:35:53.663Z,1.90
2022-09-16T12:39:07.127Z,2.12
2022-09-16T12:43:32.273Z,1.92
2022-09-16T12:47:46.958Z,1.80
2022-09-16T12:51:48.305Z,2.10
2022-09-16T13:03:19.184Z,1.77
2022-09-16T13:06:56.114Z,1.65
2022-09-16T13:10:55.050Z,1.62
2022-09-16T13:14:28.841Z,1.75
2022-09-16T13:18:18.182Z,1.50
2022-09-16T13:22:34.997Z,1.30
2022-09-16T13:26:10.906Z,1.70
2022-09-16T13:29:44.190Z,1.87
2022-09-16T13:33:15.895Z,1.50
2022-09-16T13:37:21.146Z,1.48
2022-09-16T13:40:42.661Z,1.62
2022-09-16T13:44:39.220Z,1.23
2022-09-16T13:48:37.453Z,1.58
2022-09-16T13:52:25.819Z,1.65
2022-09-16T13:55:56.539Z,1.58
2022-09-16T14:00:04.468Z,1.33
2022-09-16T14:04:08.937Z,1.62
2022-09-16T14:07:48.836Z,1.50
2022-09-16T14:11:58.886Z,1.27
2022-09-16T14:15:25.012Z,1.40
2022-09-16T14:19:33.371Z,1.60
2022-09-16T14:23:20.812Z,1.55
2022-09-16T14:26:57.821Z,1.40
2022-09-16T14:30:29.777Z,1.45
2022-09-16T14:34:22.508Z,1.73
2022-09-16T14:38:41.166Z,1.20
2022-09-16T14:42:04.772Z,1.90
2022-09-16T14:45:38.232Z,1.27
2022-09-16T14:49:19.631Z,1.50
2022-09-16T14:52:55.307Z,2.00
2022-09-16T14:56:27.083Z,1.50
2022-09-16T15:00:32.400Z,1.67
2022-09-16T15:04:20.035Z,1.58
2022-09-16T15:08:47.165Z,1.10
2022-09-16T15:12:55.000Z,1.60
2022-09-16T15:16:51.047Z,1.62
2022-09-16T15:20:37.634Z,1.58
2022-09-16T15:24:17.716Z,1.60
2022-09-16T15:28:17.867Z,1.85
2022-09-16T15:32:20.944Z,1.83
2022-09-16T15:36:13.480Z,1.62
2022-09-16T15:39:47.083Z,1.45
2022-09-16T15:43:45.048Z,1.20
2022-09-16T15:48:16.279Z,1.10
2022-09-16T15:51:51.743Z,1.40
2022-09-16T15:55:34.086Z,1.40
2022-09-16T15:59:35.497Z,1.00
2022-09-16T16:03:41.543Z,1.15
2022-09-16T16:07:53.232Z,1.20
2022-09-16T16:12:24.662Z,1.30
2022-09-16T16:16:00.326Z,0.88
2022-09-16T16:19:34.715Z,1.15
2022-09-16T16:23:20.099Z,1.23
2022-09-16T16:27:17.121Z,1.12
2022-09-16T16:30:53.899Z,1.00
2022-09-16T16:34:44.232Z,1.48
2022-09-16T16:38:26.768Z,1.20
2022-09-16T16:42:02.699Z,1.25
2022-09-16T16:46:32.741Z,1.23
2022-09-16T16:50:24.785Z,1.10
2022-09-16T16:54:05.016Z,1.20
2022-09-16T16:58:09.551Z,1.20
2022-09-16T17:01:39.665Z,1.00
2022-09-16T17:05:43.301Z,1.02
2022-09-16T17:09:15.758Z,1.20
2022-09-16T17:12:59.842Z,0.93
2022-09-16T17:16:25.109Z,1.30
2022-09-16T17:19:31.153Z,1.45
2022-09-16T17:22:36.051Z,1.27
2022-09-16T17:26:24.326Z,1.10
2022-09-16T17:37:37.845Z,1.60
2022-09-16T17:41:23.405Z,1.40
2022-09-16T17:45:07.126Z,1.65
2022-09-16T17:49:16.451Z,1.62
2022-09-16T17:52:52.057Z,1.33
2022-09-16T17:56:27.655Z,1.40
2022-09-16T18:00:03.367Z,1.10
2022-09-16T18:04:07.840Z,1.10
2022-09-16T18:07:59.586Z,1.37
2022-09-16T18:11:44.909Z,1.10
2022-09-16T18:15:29.268Z,1.17
2022-09-16T18:19:18.052Z,1.30
2022-09-16T18:22:41.328Z,1.30
2022-09-16T18:26:44.994Z,1.20
2022-09-16T18:30:28.584Z,1.45
2022-09-16T18:34:17.279Z,1.27
2022-09-16T18:37:24.366Z,1.40
2022-09-16T18:41:34.163Z,1.30
2022-09-16T18:48:34.447Z,1.30
2022-09-16T18:52:05.261Z,1.48
2022-09-16T18:55:49.317Z,1.30
2022-09-16T18:59:22.973Z,1.17
2022-09-16T19:02:52.297Z,1.40
2022-09-16T19:06:32.951Z,1.20
2022-09-16T19:10:16.508Z,2.00
2022-09-16T19:13:48.135Z,1.75
2022-09-16T19:17:56.205Z,1.60
2022-09-16T19:21:39.187Z,1.23
2022-09-16T19:25:43.639Z,1.20
2022-09-16T19:28:51.100Z,1.23
2022-09-16T19:32:33.212Z,1.70
2022-09-16T19:36:39.257Z,1.15
2022-09-16T19:40:21.807Z,1.50
2022-09-16T19:44:00.171Z,1.20
2022-09-16T19:47:58.761Z,1.20
2022-09-16T19:51:27.340Z,1.35
2022-09-16T19:54:52.882Z,1.55
2022-09-16T19:58:30.911Z,1.33
2022-09-16T20:02:35.782Z,1.10
2022-09-16T20:06:06.931Z,1.27
2022-09-16T20:09:20.647Z,1.15
2022-09-16T20:12:58.696Z,1.35
2022-09-16T20:16:38.054Z,1.10
2022-09-16T20:20:23.379Z,1.30
2022-09-16T20:24:08.349Z,1.30
2022-09-16T20:27:39.411Z,1.27
2022-09-16T20:31:08.399Z,1.30
2022-09-16T20:34:37.721Z,1.30
2022-09-16T20:38:14.168Z,1.40
2022-09-16T20:41:23.619Z,1.70
2022-09-16T20:44:34.965Z,0.95
2022-09-16T20:48:04.723Z,1.60
2022-09-16T20:51:37.666Z,1.20
2022-09-16T20:55:23.590Z,1.70
2022-09-16T20:59:16.675Z,1.10
2022-09-16T21:03:02.210Z,1.55
2022-09-16T21:06:29.522Z,1.35
2022-09-16T21:10:13.276Z,1.50
2022-09-16T21:13:58.840Z,1.10
2022-09-16T21:18:10.183Z,1.40
2022-09-16T21:22:15.287Z,1.50
2022-09-16T21:26:13.262Z,1.23
2022-09-16T21:29:36.139Z,1.40
2022-09-16T21:33:26.626Z,1.75
2022-09-16T21:37:09.393Z,1.30
2022-09-16T21:40:39.543Z,1.77
2022-09-16T21:44:37.800Z,1.50
2022-09-16T21:48:07.811Z,1.60
2022-09-16T21:51:38.549Z,1.80
2022-09-16T21:55:22.141Z,1.90
2022-09-16T21:59:26.357Z,1.77
2022-09-16T22:02:31.133Z,1.70
2022-09-16T22:06:12.612Z,1.50
2022-09-16T22:09:53.753Z,1.80
2022-09-16T22:13:31.857Z,1.65
2022-09-16T22:16:41.096Z,1.70
2022-09-16T22:20:08.539Z,1.60
2022-09-16T22:23:35.697Z,1.27
2022-09-16T22:27:30.165Z,1.70
2022-09-16T22:30:46.391Z,1.40
2022-09-16T22:34:09.501Z,1.90
2022-09-16T22:37:57.544Z,1.70
2022-09-16T22:41:48.536Z,1.50
2022-09-16T22:49:00.668Z,1.85
2022-09-16T22:52:51.774Z,1.87
2022-09-16T22:56:23.621Z,2.03
2022-09-16T22:59:56.961Z,1.85
2022-09-16T23:03:43.320Z,1.87
2022-09-16T23:07:30.063Z,1.98
2022-09-16T23:10:56.420Z,1.95
2022-09-16T23:14:31.380Z,1.80
2022-09-16T23:18:22.938Z,2.05
2022-09-16T23:21:47.077Z,1.75
2022-09-16T23:25:26.637Z,2.20
2022-09-16T23:28:56.853Z,2.05
2022-09-16T23:36:05.030Z,2.17
2022-09-16T23:39:48.448Z,1.77
2022-09-16T23:43:10.942Z,2.15
2022-09-16T23:46:55.098Z,2.17
2022-09-16T23:50:24.905Z,1.62
2022-09-16T23:53:45.771Z,2.23
2022-09-16T23:57:38.140Z,2.53
